Página principal
METAR-TAF:

METAR-TAF

Aeroportos :

Zinder, Níger

latitude: 13-47N, longitude: 008-59E, altura: 452 m

Observação actual do tempo

O boletim foi feito há 1 hora e 7 minutos, às 16:00 UTC
Vento 7 kt de oes-noroeste, variando entre oes-sudoeste e noroeste
Temperatura 38°C
Humidade 33%
Pressão 1010 hPa
Visibilidade: 8000 m

METAR: DRZR 221600Z 30007KT 240V320 8000 NSC 38/19 Q1010

Hora: 18:07 (17:07 UTC)

Previsão

O boletim foi feito há 6 horas e 7 minutos, às 11:00 UTC
Previsão válida de 22 às 12 UTC a 23 às 12 UTC
Vento 8 kt de oeste
Visibilidade: 8000 m
Temporariamente
de 22 às 15 UTC a 22 às 20 UTC
Vento 25 kt com direcção variável
Visibilidade: 2000 m
Nuvens dispersasa uma altura de 3000 ft
Nuvens dispersasa uma altura de 4000 ft, Cumulonimbus.
Poeira levantada pelo vento, trovoada, chuva,

TAF: DRZR 221100Z 2212/2312 26008KT 8000 NSC TEMPO 2215/2220 VRB25KT 2000 BLDU TSRA SCT030 SCT040CB

Observações e previsões do tempo de mais de 4000 aeroportos (mensagens METAR e TAF).

As estações disponíveis são os pontos amarelos e vermelhos sobre o mapa.

Mova o rato sobre o mapa para ver o nome da estação.

Depois clique no ponto para visualizar as observações e previsões meteorológicas.

Para alterar o mapa : clique nos botões verdes com uma cruz preta para aumentar o zoom; no botão verde com uma pitada de zoom; ou nas setas verdes para mapas adjacentes.


METAR-TAF: